Etusivu
METAR-TAF:

METAR-TAF

Lentoasemat :

Tiaret, Algeria

Leveyspiiri: 35-15N, Pituuspiiri: 001-26E, korkeus merenpinnasta: 1127 m

Tämänhetkinen sää

Tämä raportti tehtiin 53 minuuttia sitten, kello 22.00 UTC
Tuuli 4 kn luoteesta
Lämpötila 23°C
Kosteus 22%
Ilmanpaine 1021 hPa
Näkyvyys 10 km tai enemmän
ei pilviä alle 1500 m:ssä eikä cumulonimbus-pilviä

METAR: DAOB 052200Z 31004KT CAVOK 23/00 Q1021

Aika: 23:53 (22:53 UTC)

Sääennuste

Tämä raportti tehtiin 5 tuntia ja 53 minuuttia sitten, kello 17.00 UTC
Ennuste voimassa 05. päivästä klo 18 UTC - 06. päivään klo 18 UTC
Tuuli 10 kn lännestä/luoteesta
Näkyvyys 10 km tai enemmän
ei pilviä alle 1500 m:ssä eikä cumulonimbus-pilviä
Tulossa
05. päivästä klo 19 UTC - 05. päivään klo 21 UTC
Tuuli 2 kn eri suunnista
Tulossa
06. päivästä klo 07 UTC - 06. päivään klo 09 UTC
Tuuli 10 kn luoteesta

TAF: DAOB 051700Z 0518/0618 30010KT CAVOK BECMG 0519/0521 VRB02KT BECMG 0607/0609 32010KT

Säähavainnot ja -ennusteet yli 4000 lentoasemalta (METAR- ja TAF-raportit).

Käytössä olevat sääasemat on merkitty karttaan keltaisilla ja punaisilla pisteillä.

Aseta hiiri pisteen päälle nähdäksesi sääaseman nimen.

Klikkaa sitten nähdäksesi säähavainnot ja -ennusteet.

Kartan vaihtaminen: klikkaa mustalla rastilla varustettuja vihreitä pisteitä, niin voit zoomata sisään; viivalla varustettua vihreää pistettä, niin voit zoomata ulos tai vihreitä nuolia, niin pääset viereisille kartoille.


METAR-TAF: